createdAt,value
2019-03-27T00:00:16.984Z,36.53
2019-03-27T00:02:47.236Z,35.35
2019-03-27T00:05:16.494Z,36.55
2019-03-27T00:07:45.754Z,35.78
2019-03-27T00:10:15.267Z,32.25
2019-03-27T00:12:44.850Z,35.10
2019-03-27T00:15:14.399Z,32.65
2019-03-27T00:17:43.976Z,34.43
2019-03-27T00:20:13.585Z,31.33
2019-03-27T00:22:42.852Z,33.55
2019-03-27T00:25:12.182Z,34.53
2019-03-27T00:27:41.472Z,37.42
2019-03-27T00:30:12.543Z,34.70
2019-03-27T00:32:41.794Z,34.15
2019-03-27T00:35:11.126Z,34.20
2019-03-27T00:37:40.407Z,35.48
2019-03-27T00:40:10.202Z,33.50
2019-03-27T00:42:39.743Z,40.00
2019-03-27T00:45:09.756Z,33.38
2019-03-27T00:47:39.026Z,39.20
2019-03-27T00:50:09.626Z,34.80
2019-03-27T00:52:38.903Z,35.10
2019-03-27T00:55:09.117Z,33.38
2019-03-27T00:57:38.547Z,35.90
2019-03-27T01:00:13.607Z,35.75
2019-03-27T04:03:03.507Z,38.95
2019-03-27T04:05:32.786Z,41.02
2019-03-27T04:08:02.061Z,35.28
2019-03-27T04:10:31.310Z,28.52
2019-03-27T04:13:00.587Z,43.35
2019-03-27T04:15:29.857Z,35.98
2019-03-27T04:17:59.135Z,35.13
2019-03-27T04:20:28.392Z,31.52
2019-03-27T04:22:57.671Z,36.48
2019-03-27T04:25:27.196Z,25.62
2019-03-27T04:27:56.803Z,34.90
2019-03-27T04:30:26.075Z,31.52
2019-03-27T04:32:55.612Z,42.13
2019-03-27T04:35:24.880Z,34.90
2019-03-27T04:37:55.119Z,32.20
2019-03-27T04:40:24.383Z,39.42
2019-03-27T04:42:53.675Z,33.23
2019-03-27T04:45:22.934Z,31.20
2019-03-27T04:47:52.207Z,35.52
2019-03-27T04:50:21.747Z,40.33
2019-03-27T04:52:51.025Z,33.53
2019-03-27T04:55:21.363Z,44.30
2019-03-27T04:57:50.882Z,28.67
2019-03-27T05:00:20.491Z,27.73
2019-03-27T05:02:50.828Z,33.70
2019-03-27T05:05:20.104Z,31.12
2019-03-27T05:07:49.364Z,35.60
2019-03-27T05:10:18.654Z,35.50
2019-03-27T05:12:47.918Z,37.98
2019-03-27T05:15:17.186Z,38.23
2019-03-27T05:17:46.773Z,37.33
2019-03-27T05:20:16.070Z,37.30
2019-03-27T05:22:45.342Z,36.83
2019-03-27T05:25:14.610Z,33.33
2019-03-27T05:27:43.875Z,39.25
2019-03-27T05:30:14.850Z,32.88
2019-03-27T05:32:44.129Z,37.55
2019-03-27T05:35:13.386Z,38.42
2019-03-27T05:37:42.654Z,41.68
2019-03-27T05:40:11.930Z,42.60
2019-03-27T05:42:41.206Z,41.08
2019-03-27T05:45:10.643Z,39.98
2019-03-27T05:47:40.190Z,34.98
2019-03-27T05:50:10.015Z,32.33
2019-03-27T05:52:39.290Z,34.65
2019-03-27T05:55:08.625Z,33.08
2019-03-27T05:57:37.910Z,34.40
2019-03-27T06:00:07.410Z,37.75
2019-03-27T06:02:36.678Z,33.65
2019-03-27T06:05:06.586Z,36.93
2019-03-27T06:07:35.851Z,24.18
2019-03-27T06:10:06.258Z,30.65
2019-03-27T06:12:35.538Z,38.85
2019-03-27T06:15:06.648Z,27.50
2019-03-27T06:17:35.930Z,38.80
2019-03-27T06:20:06.848Z,32.85
2019-03-27T06:22:36.115Z,36.73
2019-03-27T06:25:07.093Z,49.85
2019-03-27T06:27:37.329Z,43.05
2019-03-27T06:30:07.234Z,41.45
2019-03-27T06:32:36.676Z,38.67
2019-03-27T06:35:08.566Z,43.10
2019-03-27T06:37:37.838Z,46.25
2019-03-27T06:40:07.645Z,38.48
2019-03-27T06:42:36.946Z,47.30
2019-03-27T06:45:07.832Z,42.95
2019-03-27T06:47:37.098Z,48.05
2019-03-27T06:50:06.990Z,42.60
2019-03-27T06:52:36.477Z,40.23
2019-03-27T06:55:07.196Z,46.45
2019-03-27T06:57:36.462Z,50.12
2019-03-27T07:00:10.698Z,36.15
2019-03-27T07:02:39.960Z,37.40
2019-03-27T07:05:09.958Z,44.98
2019-03-27T07:07:39.231Z,34.98
2019-03-27T07:10:09.727Z,38.10
2019-03-27T07:12:38.990Z,45.23
2019-03-27T07:15:08.759Z,42.08
2019-03-27T07:17:38.026Z,42.00
2019-03-27T07:20:08.040Z,42.38
2019-03-27T07:22:37.312Z,48.75
2019-03-27T07:25:07.631Z,37.28
2019-03-27T07:27:36.895Z,50.65
2019-03-27T07:30:07.507Z,46.33
2019-03-27T07:32:36.771Z,45.35
2019-03-27T07:35:06.577Z,40.10
2019-03-27T07:37:36.297Z,48.20
2019-03-27T07:40:07.299Z,39.13
2019-03-27T07:42:36.572Z,50.40
2019-03-27T07:45:07.174Z,52.25
2019-03-27T07:47:36.439Z,48.35
2019-03-27T07:50:07.142Z,35.70
2019-03-27T07:52:36.714Z,51.30
2019-03-27T07:55:18.787Z,44.45
2019-03-27T07:57:37.790Z,49.75
2019-03-27T08:00:13.326Z,45.63
2019-03-27T08:02:42.591Z,35.43
2019-03-27T08:05:12.948Z,52.25
2019-03-27T08:07:42.287Z,48.45
2019-03-27T08:10:11.619Z,51.18
2019-03-27T08:12:40.895Z,50.95
2019-03-27T08:15:10.605Z,51.58
2019-03-27T08:17:39.863Z,37.58
2019-03-27T08:20:09.775Z,46.35
2019-03-27T08:22:39.036Z,48.33
2019-03-27T08:25:09.062Z,45.40
2019-03-27T08:27:39.502Z,42.45
2019-03-27T08:30:13.898Z,40.98
2019-03-27T08:32:43.166Z,43.40
2019-03-27T08:35:12.670Z,47.33
2019-03-27T08:37:41.955Z,45.52
2019-03-27T08:40:11.830Z,45.43
2019-03-27T08:42:41.384Z,45.67
2019-03-27T08:45:11.486Z,42.43
2019-03-27T08:47:40.762Z,48.08
2019-03-27T08:50:12.066Z,48.65
2019-03-27T08:52:41.338Z,47.20
2019-03-27T08:55:13.557Z,47.38
2019-03-27T08:57:41.818Z,41.08
2019-03-27T09:00:14.170Z,34.53
2019-03-27T09:02:43.440Z,33.92
2019-03-27T09:05:12.838Z,30.35
2019-03-27T09:07:42.107Z,24.95
2019-03-27T09:10:12.018Z,18.87
2019-03-27T09:12:41.292Z,26.57
2019-03-27T09:15:10.839Z,28.00
2019-03-27T09:17:40.110Z,24.55
2019-03-27T09:20:09.831Z,18.77
2019-03-27T09:22:39.099Z,24.10
2019-03-27T09:25:08.716Z,21.65
2019-03-27T09:27:37.986Z,24.55
2019-03-27T09:30:10.660Z,22.70
2019-03-27T09:32:40.010Z,19.92
2019-03-27T09:35:09.940Z,20.68
2019-03-27T09:37:39.231Z,25.05
2019-03-27T09:40:08.934Z,24.77
2019-03-27T09:42:38.206Z,22.95
2019-03-27T09:45:09.387Z,28.32
2019-03-27T09:47:38.664Z,26.12
2019-03-27T09:50:08.679Z,23.45
2019-03-27T09:52:37.953Z,23.92
2019-03-27T09:55:07.218Z,24.20
2019-03-27T09:57:36.493Z,21.57
2019-03-27T10:00:08.139Z,25.02
2019-03-27T10:02:37.415Z,20.60
2019-03-27T10:05:07.924Z,22.55
2019-03-27T10:07:38.165Z,21.25
2019-03-27T10:10:07.785Z,22.87
2019-03-27T10:12:37.048Z,22.60
2019-03-27T10:15:09.188Z,23.12
2019-03-27T10:17:38.706Z,24.57
2019-03-27T10:20:08.219Z,19.48
2019-03-27T10:22:37.493Z,20.37
2019-03-27T10:25:08.686Z,16.32
2019-03-27T10:27:37.950Z,14.70
2019-03-27T10:30:07.858Z,16.55
2019-03-27T10:32:37.122Z,10.53
2019-03-27T10:35:07.923Z,11.48
2019-03-27T10:37:37.524Z,14.40
2019-03-27T10:40:08.130Z,6.35
2019-03-27T10:42:37.466Z,9.50
2019-03-27T10:45:07.182Z,15.78
2019-03-27T10:47:36.446Z,12.98
2019-03-27T10:50:17.467Z,13.28
2019-03-27T10:52:38.378Z,12.43
2019-03-27T10:55:08.578Z,8.83
2019-03-27T10:57:37.859Z,6.03
2019-03-27T11:00:11.284Z,5.25
2019-03-27T11:02:40.816Z,6.12
2019-03-27T11:05:10.695Z,5.70
2019-03-27T11:07:39.958Z,6.83
2019-03-27T11:10:10.386Z,6.97
2019-03-27T11:12:39.646Z,8.60
2019-03-27T11:15:11.054Z,8.08
2019-03-27T11:17:40.310Z,6.17
2019-03-27T11:20:10.218Z,6.45
2019-03-27T11:22:39.552Z,6.50
2019-03-27T11:25:09.650Z,6.85
2019-03-27T11:27:38.931Z,5.62
2019-03-27T11:30:09.735Z,7.62
2019-03-27T11:32:39.162Z,8.45
2019-03-27T11:35:08.701Z,7.35
2019-03-27T11:37:38.274Z,6.42
2019-03-27T11:40:07.978Z,7.12
2019-03-27T11:42:37.239Z,6.97
2019-03-27T11:45:08.347Z,8.08
2019-03-27T11:47:37.617Z,8.43
2019-03-27T11:50:09.384Z,8.08
2019-03-27T11:52:38.669Z,14.50
2019-03-27T11:55:08.187Z,9.63
2019-03-27T11:57:37.447Z,8.60
2019-03-27T12:00:09.586Z,8.53
2019-03-27T12:02:40.271Z,9.73
2019-03-27T12:05:10.215Z,10.40
2019-03-27T12:07:39.529Z,11.48
2019-03-27T12:10:09.462Z,12.55
2019-03-27T12:12:38.734Z,9.00
2019-03-27T12:15:09.534Z,8.03
2019-03-27T12:17:38.810Z,11.10
2019-03-27T12:20:08.070Z,8.43
2019-03-27T12:22:38.416Z,11.35
2019-03-27T12:25:08.110Z,12.40
2019-03-27T12:27:37.722Z,10.13
2019-03-27T12:30:08.029Z,11.43
2019-03-27T12:32:37.304Z,9.58
2019-03-27T12:35:06.733Z,9.10
2019-03-27T12:37:36.002Z,9.55
2019-03-27T12:40:11.401Z,11.45
2019-03-27T12:42:37.209Z,8.48
2019-03-27T12:45:07.599Z,12.25
2019-03-27T12:47:36.874Z,12.28
2019-03-27T12:50:07.382Z,6.90
2019-03-27T12:52:36.802Z,10.63
2019-03-27T12:55:07.082Z,12.95
2019-03-27T12:57:36.351Z,12.03
2019-03-27T13:00:08.680Z,10.08
2019-03-27T13:02:37.946Z,10.93
2019-03-27T13:05:07.951Z,10.48
2019-03-27T13:07:49.379Z,10.93
2019-03-27T13:10:08.521Z,12.63
2019-03-27T13:12:37.783Z,11.57
2019-03-27T13:15:07.970Z,11.70
2019-03-27T13:17:37.245Z,13.80
2019-03-27T13:20:07.858Z,10.53
2019-03-27T13:22:38.350Z,11.15
2019-03-27T13:25:09.302Z,11.57
2019-03-27T13:27:39.410Z,10.48
2019-03-27T13:30:09.910Z,11.15
2019-03-27T13:32:39.178Z,9.25
2019-03-27T13:35:08.787Z,8.95
2019-03-27T13:37:38.046Z,8.50
2019-03-27T13:40:10.600Z,14.55
2019-03-27T13:42:39.870Z,11.63
2019-03-27T13:45:10.678Z,12.85
2019-03-27T13:47:39.962Z,13.38
2019-03-27T13:50:13.140Z,12.75
2019-03-27T13:52:42.741Z,12.53
2019-03-27T13:55:12.238Z,12.90
2019-03-27T13:57:41.878Z,13.65
2019-03-27T14:00:14.348Z,15.98
2019-03-27T14:02:43.951Z,13.05
2019-03-27T14:05:15.005Z,14.90
2019-03-27T14:07:44.270Z,17.30
2019-03-27T14:10:14.270Z,13.98
2019-03-27T14:12:43.542Z,13.78
2019-03-27T14:15:13.450Z,13.90
2019-03-27T14:17:42.730Z,13.95
2019-03-27T14:20:12.642Z,16.70
2019-03-27T14:22:42.080Z,16.93
2019-03-27T14:25:11.662Z,13.78
2019-03-27T14:27:40.923Z,12.37
2019-03-27T14:30:13.438Z,13.20
2019-03-27T14:32:42.949Z,13.50
2019-03-27T14:35:12.693Z,13.78
2019-03-27T14:37:41.954Z,13.80
2019-03-27T14:40:11.559Z,14.05
2019-03-27T14:42:40.826Z,10.35
2019-03-27T14:45:10.440Z,15.05
2019-03-27T14:47:39.711Z,12.23
2019-03-27T14:50:09.412Z,11.78
2019-03-27T14:52:38.755Z,12.15
2019-03-27T14:55:08.558Z,12.95
2019-03-27T14:57:38.472Z,12.05
2019-03-27T15:00:10.156Z,13.08
2019-03-27T15:02:40.464Z,11.70
2019-03-27T15:05:10.177Z,13.85
2019-03-27T15:07:39.448Z,13.50
2019-03-27T15:10:09.454Z,12.05
2019-03-27T15:12:40.275Z,13.25
2019-03-27T15:15:13.595Z,15.08
2019-03-27T15:17:42.895Z,13.88
2019-03-27T15:20:12.654Z,12.88
2019-03-27T15:22:42.002Z,15.25
2019-03-27T15:25:11.270Z,15.63
2019-03-27T15:27:41.610Z,13.22
2019-03-27T15:30:13.296Z,15.50
2019-03-27T15:32:43.675Z,17.00
2019-03-27T15:35:13.106Z,13.72
2019-03-27T15:37:42.367Z,9.73
2019-03-27T15:40:12.370Z,14.75
2019-03-27T15:42:41.653Z,16.42
2019-03-27T15:45:13.131Z,15.83
2019-03-27T15:47:42.398Z,12.78
2019-03-27T15:50:11.798Z,13.20
2019-03-27T15:52:41.390Z,13.15
2019-03-27T15:55:10.903Z,15.00
2019-03-27T15:57:40.607Z,13.05
2019-03-27T16:00:10.187Z,15.63
2019-03-27T16:02:40.630Z,14.50
2019-03-27T16:05:10.130Z,15.05
2019-03-27T16:07:39.408Z,13.20
2019-03-27T16:10:08.739Z,15.35
2019-03-27T16:12:38.020Z,17.12
2019-03-27T16:15:11.107Z,14.68
2019-03-27T16:17:40.378Z,14.63
2019-03-27T16:20:11.006Z,13.93
2019-03-27T16:22:50.453Z,15.13
2019-03-27T16:25:11.478Z,16.65
2019-03-27T16:27:40.758Z,14.45
2019-03-27T16:30:11.497Z,14.20
2019-03-27T16:32:41.826Z,15.03
2019-03-27T16:35:11.440Z,15.03
2019-03-27T16:37:40.706Z,17.30
2019-03-27T16:40:10.521Z,14.85
2019-03-27T16:42:39.855Z,17.17
2019-03-27T16:45:09.962Z,17.73
2019-03-27T16:47:39.290Z,14.55
2019-03-27T16:50:09.398Z,14.78
2019-03-27T16:52:38.671Z,16.52
2019-03-27T16:55:08.478Z,14.43
2019-03-27T16:57:37.747Z,15.53
2019-03-27T17:00:08.955Z,19.50
2019-03-27T17:02:38.280Z,18.50
2019-03-27T17:05:07.790Z,18.52
2019-03-27T17:07:37.065Z,14.73
2019-03-27T17:10:07.956Z,17.02
2019-03-27T17:12:37.395Z,19.67
2019-03-27T17:15:07.532Z,16.55
2019-03-27T17:17:36.778Z,17.37
2019-03-27T17:20:10.719Z,16.62
2019-03-27T17:22:39.999Z,14.75
2019-03-27T17:25:10.299Z,20.00
2019-03-27T17:27:40.547Z,15.95
2019-03-27T17:30:11.226Z,19.02
2019-03-27T17:32:40.491Z,20.97
2019-03-27T17:35:10.099Z,15.55
2019-03-27T17:37:39.363Z,18.77
2019-03-27T17:40:08.909Z,26.10
2019-03-27T17:42:38.171Z,19.07
2019-03-27T17:45:08.074Z,17.98
2019-03-27T17:47:37.370Z,16.95
2019-03-27T17:50:07.070Z,18.87
2019-03-27T17:52:38.154Z,15.60
2019-03-27T17:55:08.136Z,20.57
2019-03-27T17:57:37.414Z,18.35
2019-03-27T18:00:08.850Z,21.62
2019-03-27T18:02:38.300Z,19.27
2019-03-27T18:05:08.067Z,20.52
2019-03-27T18:07:37.347Z,26.40
2019-03-27T18:10:07.946Z,21.15
2019-03-27T18:12:37.394Z,18.32
2019-03-27T18:15:07.710Z,19.07
2019-03-27T18:17:37.042Z,17.73
2019-03-27T18:20:06.662Z,20.90
2019-03-27T18:22:35.931Z,23.30
2019-03-27T18:25:07.053Z,20.90
2019-03-27T18:27:36.613Z,20.88
2019-03-27T18:30:07.815Z,21.25
2019-03-27T18:32:37.270Z,17.52
2019-03-27T18:35:07.157Z,21.23
2019-03-27T18:37:37.909Z,20.37
2019-03-27T18:40:07.610Z,17.87
2019-03-27T18:42:36.874Z,16.97
2019-03-27T18:45:07.852Z,17.85
2019-03-27T18:47:37.102Z,17.10
2019-03-27T18:50:08.874Z,13.48
2019-03-27T18:52:38.146Z,17.25
2019-03-27T18:55:07.496Z,15.78
2019-03-27T18:57:37.127Z,16.65
2019-03-27T19:00:10.210Z,31.15
2019-03-27T19:02:39.711Z,24.50
2019-03-27T19:05:10.104Z,65.45
2019-03-27T19:07:39.372Z,28.73
2019-03-27T19:10:08.978Z,14.07
2019-03-27T19:12:38.255Z,17.92
2019-03-27T19:15:19.415Z,19.35
2019-03-27T19:17:48.689Z,25.50
2019-03-27T19:20:18.034Z,29.18
2019-03-27T19:22:47.305Z,18.98
2019-03-27T19:25:16.639Z,17.07
2019-03-27T19:27:46.151Z,18.37
2019-03-27T19:30:15.755Z,15.78
2019-03-27T19:32:45.030Z,18.00
2019-03-27T19:35:14.366Z,14.45
2019-03-27T19:37:43.870Z,15.13
2019-03-27T19:40:13.567Z,16.25
2019-03-27T19:42:42.850Z,21.85
2019-03-27T19:45:12.631Z,18.07
2019-03-27T19:47:42.310Z,19.30
2019-03-27T19:50:12.023Z,14.85
2019-03-27T19:52:41.288Z,15.15
2019-03-27T19:55:10.643Z,16.85
2019-03-27T19:57:39.918Z,17.30
2019-03-27T20:00:11.248Z,18.25
2019-03-27T20:02:40.842Z,19.87
2019-03-27T20:05:10.951Z,14.47
2019-03-27T20:07:40.233Z,15.23
2019-03-27T20:10:09.737Z,19.90
2019-03-27T20:12:40.115Z,18.35
2019-03-27T20:15:12.065Z,20.40
2019-03-27T20:17:41.101Z,18.30
2019-03-27T20:20:11.520Z,21.12
2019-03-27T20:22:40.800Z,23.92
2019-03-27T20:25:10.902Z,18.82
2019-03-27T20:27:40.250Z,21.45
2019-03-27T20:30:15.312Z,19.57
2019-03-27T20:32:44.658Z,16.70
2019-03-27T20:35:14.314Z,17.75
2019-03-27T20:37:44.962Z,14.03
2019-03-27T20:40:16.034Z,18.12
2019-03-27T20:42:45.791Z,18.98
2019-03-27T20:45:15.468Z,26.30
2019-03-27T20:47:44.742Z,19.92
2019-03-27T20:50:14.422Z,15.35
2019-03-27T20:52:43.699Z,14.85
2019-03-27T20:55:13.316Z,16.48
2019-03-27T20:57:42.753Z,19.25
2019-03-27T21:00:13.231Z,19.40
2019-03-27T21:02:44.272Z,15.28
2019-03-27T21:05:13.624Z,13.50
2019-03-27T21:07:42.896Z,19.62
2019-03-27T21:10:12.687Z,16.87
2019-03-27T21:12:41.970Z,15.93
2019-03-27T21:15:11.769Z,14.75
2019-03-27T21:17:41.052Z,17.50
2019-03-27T21:20:10.882Z,14.93
2019-03-27T21:22:40.231Z,16.95
2019-03-27T21:25:10.308Z,14.65
2019-03-27T21:27:39.706Z,14.55
2019-03-27T21:30:10.510Z,16.00
2019-03-27T21:32:39.789Z,17.55
2019-03-27T21:35:09.290Z,21.57
2019-03-27T21:37:38.635Z,23.07
2019-03-27T21:40:09.732Z,20.97
2019-03-27T21:42:39.000Z,14.90
2019-03-27T21:45:09.280Z,17.15
2019-03-27T21:47:38.549Z,18.42
2019-03-27T21:50:08.530Z,16.30
2019-03-27T21:52:37.791Z,16.15
2019-03-27T21:55:16.838Z,17.52
2019-03-27T21:57:38.561Z,23.90
2019-03-27T22:00:09.505Z,21.05
2019-03-27T22:02:38.990Z,22.15
2019-03-27T22:05:08.251Z,19.48
2019-03-27T22:07:37.522Z,15.83
2019-03-27T22:10:08.014Z,17.82
2019-03-27T22:12:38.487Z,18.70
2019-03-27T22:15:09.694Z,13.65
2019-03-27T22:17:39.219Z,14.85
2019-03-27T22:20:09.019Z,15.32
2019-03-27T22:22:38.286Z,24.77
2019-03-27T22:25:07.987Z,16.42
2019-03-27T22:27:37.250Z,16.80
2019-03-27T22:30:07.559Z,18.48
2019-03-27T22:32:36.826Z,18.67
2019-03-27T22:35:09.338Z,17.80
2019-03-27T22:37:38.602Z,19.62
2019-03-27T22:40:08.215Z,20.72
2019-03-27T22:42:37.475Z,20.60
2019-03-27T22:45:07.414Z,21.82
2019-03-27T22:47:36.678Z,21.62
2019-03-27T22:50:08.128Z,23.98
2019-03-27T22:52:38.034Z,21.12
2019-03-27T22:55:08.474Z,25.15
2019-03-27T22:57:37.734Z,24.57
2019-03-27T23:00:09.430Z,22.85
2019-03-27T23:02:40.314Z,23.77
2019-03-27T23:05:10.133Z,21.45
2019-03-27T23:07:39.478Z,21.60
2019-03-27T23:10:08.983Z,17.48
2019-03-27T23:12:38.266Z,20.27
2019-03-27T23:15:09.773Z,21.57
2019-03-27T23:17:39.038Z,24.25
2019-03-27T23:20:08.676Z,21.60
2019-03-27T23:22:39.033Z,22.75
2019-03-27T23:25:08.730Z,26.93
2019-03-27T23:27:38.305Z,26.80
2019-03-27T23:30:09.031Z,23.80
2019-03-27T23:32:38.290Z,21.65
2019-03-27T23:35:08.493Z,26.87
2019-03-27T23:37:38.834Z,21.80
2019-03-27T23:40:08.270Z,23.27
2019-03-27T23:42:38.611Z,20.95
2019-03-27T23:45:08.311Z,24.85
2019-03-27T23:47:37.838Z,23.62
2019-03-27T23:50:08.846Z,20.60
2019-03-27T23:52:38.384Z,16.85
2019-03-27T23:55:07.886Z,17.85
2019-03-27T23:57:37.536Z,17.67
